createdAt,value
2022-08-09T00:02:19.385Z,99484.69
2022-08-09T00:06:18.424Z,99483.28
2022-08-09T00:08:57.534Z,99480.00
2022-08-09T00:12:04.583Z,99480.78
2022-08-09T00:15:08.684Z,99484.16
2022-08-09T00:18:17.478Z,99481.91
2022-08-09T00:21:25.586Z,99482.09
2022-08-09T00:24:28.188Z,99476.00
2022-08-09T00:27:30.356Z,99478.59
2022-08-09T00:30:38.242Z,99475.31
2022-08-09T00:33:51.102Z,99470.19
2022-08-09T00:36:55.421Z,99467.84
2022-08-09T00:40:13.567Z,99466.81
2022-08-09T00:44:20.482Z,99465.94
2022-08-09T00:46:57.844Z,99466.81
2022-08-09T00:53:25.296Z,99464.44
2022-08-09T00:56:38.115Z,99470.13
2022-08-09T00:59:46.652Z,99472.91
2022-08-09T01:02:58.734Z,99464.72
2022-08-09T01:06:17.495Z,99472.72
2022-08-09T01:09:24.935Z,99472.91
2022-08-09T01:12:41.744Z,99479.06
2022-08-09T01:15:52.513Z,99481.16
2022-08-09T01:19:02.691Z,99472.56
2022-08-09T01:22:29.293Z,99471.50
2022-08-09T01:25:42.199Z,99474.22
2022-08-09T01:28:55.237Z,99477.69
2022-08-09T01:32:37.747Z,99468.81
2022-08-09T01:35:37.233Z,99471.84
2022-08-09T01:38:44.276Z,99477.78
2022-08-09T01:41:53.660Z,99476.47
2022-08-09T01:45:13.099Z,99470.56
2022-08-09T01:48:16.924Z,99467.88
2022-08-09T01:51:22.824Z,99466.41
2022-08-09T01:54:32.810Z,99474.91
2022-08-09T01:57:40.097Z,99477.50
2022-08-09T02:00:50.526Z,99474.22
2022-08-09T02:03:53.653Z,99474.44
2022-08-09T02:07:15.565Z,99478.09
2022-08-09T02:10:32.834Z,99474.53
2022-08-09T02:13:40.333Z,99476.69
2022-08-09T02:16:59.948Z,99484.16
2022-08-09T02:20:08.982Z,99482.25
2022-08-09T02:23:17.167Z,99483.56
2022-08-09T02:26:27.176Z,99491.94
2022-08-09T02:29:31.420Z,99482.03
2022-08-09T02:32:39.043Z,99484.50
2022-08-09T02:36:01.653Z,99487.81
2022-08-09T02:39:07.619Z,99481.38
2022-08-09T02:42:26.516Z,99474.44
2022-08-09T02:45:30.487Z,99471.56
2022-08-09T02:48:36.783Z,99473.94
2022-08-09T02:51:45.601Z,99475.81
2022-08-09T02:54:54.704Z,99477.66
2022-08-09T02:58:35.413Z,99473.22
2022-08-09T03:01:29.290Z,99465.06
2022-08-09T03:04:50.834Z,99468.47
2022-08-09T03:07:54.927Z,99462.22
2022-08-09T03:10:58.415Z,99459.44
2022-08-09T03:14:02.761Z,99471.31
2022-08-09T03:17:09.358Z,99467.75
2022-08-09T03:20:25.077Z,99466.78
2022-08-09T03:23:31.595Z,99472.44
2022-08-09T03:26:33.790Z,99478.00
2022-08-09T03:29:43.147Z,99479.81
2022-08-09T03:32:59.043Z,99481.78
2022-08-09T03:36:16.413Z,99478.09
2022-08-09T03:39:19.153Z,99481.66
2022-08-09T03:42:21.297Z,99473.94
2022-08-09T03:46:05.159Z,99481.16
2022-08-09T03:48:55.774Z,99488.44
2022-08-09T03:52:03.840Z,99485.91
2022-08-09T03:55:09.831Z,99479.75
2022-08-09T03:58:16.318Z,99481.66
2022-08-09T04:01:22.525Z,99480.88
2022-08-09T04:04:36.111Z,99483.78
2022-08-09T04:07:53.153Z,99483.88
2022-08-09T04:11:01.460Z,99483.97
2022-08-09T04:14:54.257Z,99486.44
2022-08-09T04:17:25.833Z,99491.00
2022-08-09T04:20:31.310Z,99486.75
2022-08-09T04:23:53.808Z,99489.59
2022-08-09T04:26:56.831Z,99497.03
2022-08-09T04:29:58.538Z,99491.66
2022-08-09T04:33:01.177Z,99489.69
2022-08-09T04:36:03.819Z,99497.91
2022-08-09T04:39:10.570Z,99497.38
2022-08-09T04:42:15.874Z,99488.44
2022-08-09T04:45:20.640Z,99493.94
2022-08-09T04:48:23.839Z,99506.53
2022-08-09T04:51:35.191Z,99507.41
2022-08-09T04:54:40.319Z,99512.88
2022-08-09T04:57:54.115Z,99508.44
2022-08-09T05:01:03.959Z,99510.97
2022-08-09T05:04:17.797Z,99513.50
2022-08-09T05:07:20.294Z,99512.00
2022-08-09T05:10:23.567Z,99516.16
2022-08-09T05:13:25.334Z,99526.94
2022-08-09T05:16:32.023Z,99518.75
2022-08-09T05:19:44.623Z,99524.00
2022-08-09T05:23:54.967Z,99524.63
2022-08-09T05:26:22.366Z,99520.88
2022-08-09T05:29:35.752Z,99528.72
2022-08-09T05:32:37.865Z,99532.78
2022-08-09T05:35:46.865Z,99537.03
2022-08-09T05:38:51.946Z,99533.31
2022-08-09T05:41:55.014Z,99531.00
2022-08-09T05:45:00.490Z,99528.84
2022-08-09T05:48:02.237Z,99534.75
2022-08-09T05:51:41.529Z,99538.06
2022-08-09T05:54:25.749Z,99539.63
2022-08-09T05:57:50.890Z,99537.56
2022-08-09T06:00:50.655Z,99540.84
2022-08-09T06:03:58.209Z,99540.69
2022-08-09T06:07:00.335Z,99545.81
2022-08-09T06:10:03.241Z,99548.34
2022-08-09T06:13:18.430Z,99543.50
2022-08-09T06:16:23.530Z,99551.41
2022-08-09T06:19:25.473Z,99548.50
2022-08-09T06:22:30.346Z,99559.91
2022-08-09T06:25:32.217Z,99558.78
2022-08-09T06:28:38.775Z,99552.19
2022-08-09T06:32:09.237Z,99558.06
2022-08-09T06:35:07.597Z,99561.41
2022-08-09T06:38:09.558Z,99557.59
2022-08-09T06:41:18.949Z,99553.59
2022-08-09T06:44:22.596Z,99554.94
2022-08-09T06:47:25.705Z,99562.88
2022-08-09T06:50:41.118Z,99558.84
2022-08-09T06:53:43.057Z,99561.28
2022-08-09T06:56:46.492Z,99576.06
2022-08-09T07:00:49.993Z,99570.38
2022-08-09T07:03:28.516Z,99579.16
2022-08-09T07:06:31.918Z,99579.00
2022-08-09T07:09:55.305Z,99581.16
2022-08-09T07:12:57.244Z,99584.25
2022-08-09T07:16:42.870Z,99579.34
2022-08-09T07:19:23.915Z,99595.34
2022-08-09T07:22:34.335Z,99592.41
2022-08-09T07:25:38.885Z,99599.53
2022-08-09T07:29:01.288Z,99596.94
2022-08-09T07:32:09.105Z,99603.47
2022-08-09T07:35:12.505Z,99596.94
2022-08-09T07:38:16.528Z,99588.31
2022-08-09T07:41:18.672Z,99583.41
2022-08-09T07:44:24.031Z,99591.69
2022-08-09T07:47:49.248Z,99589.59
2022-08-09T07:51:09.824Z,99584.38
2022-08-09T07:54:27.838Z,99593.34
2022-08-09T07:57:36.124Z,99591.81
2022-08-09T08:00:38.697Z,99587.53
2022-08-09T08:04:02.727Z,99586.28
2022-08-09T08:07:15.000Z,99582.03
2022-08-09T08:10:27.320Z,99577.88
2022-08-09T08:13:29.164Z,99585.47
2022-08-09T08:16:51.112Z,99588.75
2022-08-09T08:20:13.023Z,99583.50
2022-08-09T08:23:17.827Z,99583.09
2022-08-09T08:26:41.687Z,99590.16
2022-08-09T08:29:48.594Z,99593.44
2022-08-09T08:32:54.085Z,99595.97
2022-08-09T08:36:05.690Z,99601.94
2022-08-09T08:39:10.877Z,99599.75
2022-08-09T08:42:13.297Z,99608.69
2022-08-09T08:45:16.782Z,99598.69
2022-08-09T08:48:19.566Z,99603.47
2022-08-09T08:51:23.548Z,99599.13
2022-08-09T08:54:29.958Z,99599.13
2022-08-09T08:57:35.280Z,99596.53
2022-08-09T09:00:38.446Z,99591.31
2022-08-09T09:03:42.904Z,99597.81
2022-08-09T09:06:49.111Z,99595.44
2022-08-09T09:10:02.363Z,99603.13
2022-08-09T09:13:09.567Z,99601.09
2022-08-09T09:16:14.037Z,99601.28
2022-08-09T09:22:56.902Z,99606.94
2022-08-09T09:26:11.976Z,99613.72
2022-08-09T09:29:16.758Z,99610.81
2022-08-09T09:32:34.518Z,99601.47
2022-08-09T09:36:00.761Z,99613.38
2022-08-09T09:39:09.803Z,99607.81
2022-08-09T09:42:22.028Z,99607.91
2022-08-09T09:45:26.155Z,99603.66
2022-08-09T09:48:33.339Z,99605.44
2022-08-09T09:51:38.215Z,99598.22
2022-08-09T09:54:48.709Z,99601.47
2022-08-09T09:58:03.460Z,99611.06
2022-08-09T10:01:31.073Z,99608.28
2022-08-09T10:04:40.640Z,99612.78
2022-08-09T10:08:01.194Z,99607.84
2022-08-09T10:11:59.918Z,99609.00
2022-08-09T10:14:47.975Z,99606.56
2022-08-09T10:17:56.239Z,99597.78
2022-08-09T10:21:07.739Z,99607.66
2022-08-09T10:24:25.686Z,99611.50
2022-08-09T10:27:57.171Z,99605.31
2022-08-09T10:34:32.823Z,99609.78
2022-08-09T10:37:38.408Z,99604.13
2022-08-09T10:40:44.646Z,99600.69
2022-08-09T10:43:59.731Z,99598.72
2022-08-09T10:48:14.397Z,99602.53
2022-08-09T10:51:09.347Z,99602.06
2022-08-09T10:54:13.158Z,99602.31
2022-08-09T10:57:15.449Z,99607.50
2022-08-09T11:00:35.291Z,99613.41
2022-08-09T11:04:03.972Z,99613.19
2022-08-09T11:07:57.892Z,99609.97
2022-08-09T11:10:56.409Z,99603.78
2022-08-09T11:14:38.304Z,99600.03
2022-08-09T11:17:45.684Z,99602.75
2022-08-09T11:20:49.791Z,99612.16
2022-08-09T11:24:01.732Z,99605.75
2022-08-09T11:27:25.421Z,99604.44
2022-08-09T11:30:47.813Z,99601.19
2022-08-09T11:33:54.433Z,99603.81
2022-08-09T11:36:56.852Z,99594.56
2022-08-09T11:40:03.969Z,99590.91
2022-08-09T11:43:07.617Z,99584.66
2022-08-09T11:46:18.484Z,99584.72
2022-08-09T11:50:54.059Z,99579.47
2022-08-09T11:53:59.886Z,99588.09
2022-08-09T11:56:48.254Z,99583.72
2022-08-09T11:59:52.423Z,99582.84
2022-08-09T12:02:55.809Z,99580.91
2022-08-09T12:05:59.139Z,99579.84
2022-08-09T12:09:05.118Z,99573.84
2022-08-09T12:12:13.120Z,99573.66
2022-08-09T12:15:50.084Z,99573.53
2022-08-09T12:18:48.998Z,99567.00
2022-08-09T12:22:00.079Z,99572.03
2022-08-09T12:25:12.605Z,99564.09
2022-08-09T12:29:15.412Z,99571.16
2022-08-09T12:31:58.240Z,99556.94
2022-08-09T12:35:03.070Z,99554.94
2022-08-09T12:38:29.563Z,99551.53
2022-08-09T12:41:44.643Z,99543.75
2022-08-09T12:44:52.492Z,99546.84
2022-08-09T12:47:57.904Z,99543.16
2022-08-09T12:51:00.185Z,99546.31
2022-08-09T12:54:07.505Z,99545.13
2022-08-09T12:57:11.901Z,99541.53
2022-08-09T13:00:25.140Z,99535.84
2022-08-09T13:03:53.504Z,99532.47
2022-08-09T13:06:50.650Z,99528.16
2022-08-09T13:10:01.778Z,99521.44
2022-08-09T13:13:09.606Z,99529.34
2022-08-09T13:16:17.421Z,99520.44
2022-08-09T13:19:25.040Z,99518.88
2022-08-09T13:23:05.540Z,99524.50
2022-08-09T13:26:10.378Z,99524.22
2022-08-09T13:29:28.625Z,99522.94
2022-08-09T13:32:49.732Z,99518.22
2022-08-09T13:36:41.768Z,99527.47
2022-08-09T13:41:51.142Z,99520.94
2022-08-09T13:42:36.507Z,99523.78
2022-08-09T13:46:44.680Z,99523.78
2022-08-09T13:49:02.083Z,99521.03
2022-08-09T13:52:08.990Z,99510.44
2022-08-09T13:55:13.718Z,99507.88
2022-08-09T13:58:15.828Z,99516.25
2022-08-09T14:01:56.185Z,99509.63
2022-08-09T14:04:59.844Z,99507.75
2022-08-09T14:08:04.321Z,99509.91
2022-08-09T14:11:16.356Z,99512.22
2022-08-09T14:14:23.538Z,99509.22
2022-08-09T14:17:53.230Z,99503.69
2022-08-09T14:21:00.995Z,99509.78
2022-08-09T14:24:10.516Z,99507.50
2022-08-09T14:27:20.932Z,99518.13
2022-08-09T14:30:36.597Z,99503.59
2022-08-09T14:33:52.238Z,99507.63
2022-08-09T14:37:11.681Z,99502.44
2022-08-09T14:40:13.870Z,99505.03
2022-08-09T14:43:24.338Z,99498.44
2022-08-09T14:46:58.523Z,99505.28
2022-08-09T14:50:02.174Z,99503.56
2022-08-09T14:53:11.632Z,99505.28
2022-08-09T14:56:13.848Z,99504.88
2022-08-09T14:59:15.867Z,99509.50
2022-08-09T15:02:20.486Z,99501.56
2022-08-09T15:05:24.222Z,99504.31
2022-08-09T15:08:26.693Z,99501.44
2022-08-09T15:11:32.234Z,99509.22
2022-08-09T15:14:34.211Z,99503.44
2022-08-09T15:17:41.509Z,99494.09
2022-08-09T15:21:57.455Z,99493.78
2022-08-09T15:24:12.867Z,99501.13
2022-08-09T15:27:15.749Z,99492.78
2022-08-09T15:30:56.558Z,99490.34
2022-08-09T15:34:17.463Z,99493.22
2022-08-09T15:37:04.119Z,99488.75
2022-08-09T15:40:11.616Z,99477.69
2022-08-09T15:43:14.284Z,99482.56
2022-08-09T15:46:32.628Z,99488.03
2022-08-09T15:49:36.518Z,99498.94
2022-08-09T15:52:41.778Z,99498.38
2022-08-09T15:56:20.973Z,99482.69
2022-08-09T15:59:18.576Z,99480.25
2022-08-09T16:02:27.175Z,99476.38
2022-08-09T16:05:47.008Z,99482.28
2022-08-09T16:08:52.636Z,99480.25
2022-08-09T16:11:56.981Z,99484.13
2022-08-09T16:15:02.362Z,99475.22
2022-08-09T16:18:04.942Z,99477.50
2022-08-09T16:21:06.719Z,99480.66
2022-08-09T16:24:30.317Z,99482.06
2022-08-09T16:27:36.022Z,99488.84
2022-08-09T16:30:38.144Z,99480.19
2022-08-09T16:33:46.322Z,99477.91
2022-08-09T16:36:48.226Z,99478.47
2022-08-09T16:40:04.806Z,99477.53
2022-08-09T16:43:10.752Z,99479.13
2022-08-09T16:46:21.359Z,99478.22
2022-08-09T16:50:29.778Z,99483.50
2022-08-09T16:52:45.312Z,99484.50
2022-08-09T16:55:59.924Z,99477.59
2022-08-09T16:59:06.494Z,99481.63
2022-08-09T17:02:13.825Z,99471.16
2022-08-09T17:05:20.140Z,99480.34
2022-08-09T17:08:46.753Z,99480.28
2022-08-09T17:11:48.189Z,99485.69
2022-08-09T17:14:58.336Z,99478.91
2022-08-09T17:18:00.810Z,99480.47
2022-08-09T17:21:02.686Z,99474.88
2022-08-09T17:24:21.101Z,99480.38
2022-08-09T17:27:28.006Z,99478.31
2022-08-09T17:30:30.748Z,99471.28
2022-08-09T17:33:37.759Z,99473.38
2022-08-09T17:36:39.787Z,99484.56
2022-08-09T17:39:57.842Z,99480.53
2022-08-09T17:43:10.861Z,99477.59
2022-08-09T17:46:34.081Z,99483.69
2022-08-09T17:49:36.611Z,99484.25
2022-08-09T17:52:56.067Z,99486.34
2022-08-09T17:56:04.621Z,99491.19
2022-08-09T17:59:11.703Z,99485.41
2022-08-09T18:02:21.563Z,99485.66
2022-08-09T18:05:38.814Z,99482.50
2022-08-09T18:08:47.853Z,99483.00
2022-08-09T18:12:14.885Z,99491.16
2022-08-09T18:15:16.300Z,99490.94
2022-08-09T18:18:25.268Z,99494.41
2022-08-09T18:21:28.007Z,99488.91
2022-08-09T18:24:33.856Z,99496.84
2022-08-09T18:28:04.160Z,99492.88
2022-08-09T18:30:58.783Z,99501.19
2022-08-09T18:34:00.474Z,99497.34
2022-08-09T18:37:02.365Z,99498.19
2022-08-09T18:40:06.341Z,99503.63
2022-08-09T18:43:10.924Z,99506.09
2022-08-09T18:46:47.504Z,99502.38
2022-08-09T18:49:43.120Z,99508.56
2022-08-09T18:52:46.814Z,99520.88
2022-08-09T18:55:57.146Z,99516.91
2022-08-09T18:59:07.000Z,99515.44
2022-08-09T19:02:10.357Z,99520.72
2022-08-09T19:05:28.721Z,99525.94
2022-08-09T19:08:38.851Z,99525.66
2022-08-09T19:11:40.801Z,99524.44
2022-08-09T19:14:43.299Z,99526.59
2022-08-09T19:17:54.560Z,99528.81
2022-08-09T19:20:58.747Z,99530.25
2022-08-09T19:24:32.368Z,99532.59
2022-08-09T19:27:25.925Z,99526.75
2022-08-09T19:30:32.335Z,99530.88
2022-08-09T19:33:38.578Z,99530.38
2022-08-09T19:36:40.404Z,99533.34
2022-08-09T19:40:05.078Z,99530.94
2022-08-09T19:43:09.991Z,99526.06
2022-08-09T19:46:34.260Z,99534.81
2022-08-09T19:50:10.078Z,99541.25
2022-08-09T19:53:10.572Z,99541.09
2022-08-09T19:56:15.361Z,99539.53
2022-08-09T19:59:40.477Z,99542.25
2022-08-09T20:04:16.767Z,99547.66
2022-08-09T20:06:20.938Z,99537.72
2022-08-09T20:09:44.946Z,99535.59
2022-08-09T20:12:47.629Z,99531.47
2022-08-09T20:16:37.051Z,99545.44
2022-08-09T20:19:47.401Z,99539.94
2022-08-09T20:22:38.003Z,99538.28
2022-08-09T20:25:51.293Z,99542.22
2022-08-09T20:28:56.391Z,99537.34
2022-08-09T20:32:31.396Z,99538.53
2022-08-09T20:35:22.601Z,99530.84
2022-08-09T20:38:33.948Z,99532.81
2022-08-09T20:41:50.266Z,99530.63
2022-08-09T20:45:04.634Z,99532.34
2022-08-09T20:48:21.159Z,99531.06
2022-08-09T20:51:23.636Z,99528.88
2022-08-09T20:54:30.080Z,99539.34
2022-08-09T20:57:32.114Z,99531.78
2022-08-09T21:00:35.198Z,99534.16
2022-08-09T21:03:39.488Z,99536.84
2022-08-09T21:06:59.034Z,99544.75
2022-08-09T21:10:17.422Z,99532.53
2022-08-09T21:13:21.090Z,99544.78
2022-08-09T21:16:30.285Z,99541.31
2022-08-09T21:20:19.142Z,99532.44
2022-08-09T21:22:55.226Z,99537.97
2022-08-09T21:26:00.209Z,99539.91
2022-08-09T21:29:11.739Z,99540.66
2022-08-09T21:32:18.441Z,99538.13
2022-08-09T21:35:24.452Z,99548.09
2022-08-09T21:38:31.154Z,99545.81
2022-08-09T21:42:05.436Z,99541.66
2022-08-09T21:45:00.121Z,99547.50
2022-08-09T21:48:01.975Z,99545.00
2022-08-09T21:51:04.044Z,99548.66
2022-08-09T21:54:16.391Z,99545.44
2022-08-09T21:57:37.661Z,99548.41
2022-08-09T22:00:44.594Z,99542.94
2022-08-09T22:03:59.817Z,99548.25
2022-08-09T22:07:04.651Z,99549.97
2022-08-09T22:10:07.722Z,99549.41
2022-08-09T22:13:11.685Z,99557.84
2022-08-09T22:16:14.827Z,99566.16
2022-08-09T22:19:58.762Z,99564.41
2022-08-09T22:22:49.680Z,99567.53
2022-08-09T22:26:08.138Z,99574.66
2022-08-09T22:29:14.629Z,99573.91
2022-08-09T22:32:29.957Z,99567.72
2022-08-09T22:36:02.676Z,99568.88
2022-08-09T22:38:55.327Z,99569.06
2022-08-09T22:41:57.447Z,99570.31
2022-08-09T22:48:13.802Z,99561.00
2022-08-09T22:48:35.522Z,99563.09
2022-08-09T22:51:43.333Z,99556.19
2022-08-09T22:54:51.897Z,99549.69
2022-08-09T22:57:59.961Z,99563.09
2022-08-09T23:01:05.897Z,99552.50
2022-08-09T23:04:08.100Z,99558.88
2022-08-09T23:08:16.341Z,99551.16
2022-08-09T23:10:54.762Z,99559.16
2022-08-09T23:13:56.560Z,99565.25
2022-08-09T23:16:59.760Z,99562.72
2022-08-09T23:20:06.791Z,99570.06
2022-08-09T23:23:10.612Z,99562.84
2022-08-09T23:26:12.381Z,99565.63
2022-08-09T23:29:17.136Z,99571.16
2022-08-09T23:32:22.257Z,99565.94
2022-08-09T23:35:25.438Z,99571.44
2022-08-09T23:38:27.349Z,99566.06
2022-08-09T23:41:29.943Z,99568.81
2022-08-09T23:44:32.305Z,99566.06
2022-08-09T23:47:35.579Z,99560.44
2022-08-09T23:50:37.537Z,99554.06
2022-08-09T23:53:41.418Z,99563.03
2022-08-09T23:56:54.281Z,99555.91
